| time (UTC) | temp C | wind direction | speed KPH | gust KPH | rain 1hr cm | rain 24hr cm | rain mn cm | humidity % | barometer mb |
| 20260509000514 | 18 | 220 | 3.2 | 3.2 | 0.00 | 0.00 | 0.00 | 39 | 1043.8 |
| 20260509000009 | 18 | 190 | 3.2 | 3.2 | 0.00 | 0.00 | 0.00 | 39 | 1043.9 |
| 20260508235507 | 18 | 228 | 3.2 | 11.3 | 0.00 | 0.00 | 0.00 | 39 | 1044.0 |
| 20260508235003 | 18 | 199 | 6.4 | 12.9 | 0.00 | 0.00 | 0.00 | 37 | 1044.1 |
| 20260508234500 | 19 | 223 | 4.8 | 4.8 | 0.00 | 0.00 | 0.00 | 38 | 1043.9 |
| 20260508233958 | 19 | 223 | 6.4 | 6.4 | 0.00 | 0.00 | 0.00 | 36 | 1044.0 |
| 20260508233457 | 19 | 238 | 6.4 | 9.7 | 0.00 | 0.00 | 0.00 | 36 | 1044.1 |
| 20260508232954 | 19 | 217 | 4.8 | 6.4 | 0.00 | 0.00 | 0.00 | 37 | 1044.0 |
| 20260508232451 | 19 | 212 | 8.0 | 9.7 | 0.00 | 0.00 | 0.00 | 35 | 1044.2 |
| 20260508231948 | 19 | 224 | 4.8 | 9.7 | 0.00 | 0.00 | 0.00 | 36 | 1044.1 |
| 20260508231445 | 20 | 243 | 3.2 | 6.4 | 0.00 | 0.00 | 0.00 | 37 | 1044.3 |
| 20260508230942 | 20 | 211 | 6.4 | 6.4 | 0.00 | 0.00 | 0.00 | 36 | 1044.1 |
| 20260508230438 | 20 | 213 | 9.7 | 12.9 | 0.00 | 0.00 | 0.00 | 33 | 1044.2 |
| 20260508225935 | 20 | 244 | 8.0 | 14.5 | 0.00 | 0.00 | 0.00 | 35 | 1044.1 |
| 20260508225432 | 20 | 219 | 6.4 | 9.7 | 0.00 | 0.00 | 0.00 | 35 | 1044.1 |
| 20260508224930 | 20 | 205 | 6.4 | 14.5 | 0.00 | 0.00 | 0.00 | 36 | 1044.1 |
| 20260508224427 | 20 | 245 | 6.4 | 11.3 | 0.00 | 0.00 | 0.00 | 35 | 1044.1 |
| 20260508223924 | 20 | 183 | 11.3 | 14.5 | 0.00 | 0.00 | 0.00 | 34 | 1044.5 |
| 20260508223422 | 20 | 193 | 6.4 | 9.7 | 0.00 | 0.00 | 0.00 | 38 | 1044.1 |
| 20260508222919 | 20 | 233 | 4.8 | 9.7 | 0.00 | 0.00 | 0.00 | 38 | 1044.1 |
| 20260508222416 | 20 | 222 | 11.3 | 14.5 | 0.00 | 0.00 | 0.00 | 34 | 1044.1 |
| 20260508221913 | 20 | 207 | 8.0 | 11.3 | 0.00 | 0.00 | 0.00 | 34 | 1044.0 |
| 20260508221408 | 21 | 212 | 6.4 | 6.4 | 0.00 | 0.00 | 0.00 | 36 | 1044.0 |
| 20260508220905 | 21 | 148 | 6.4 | 9.7 | 0.00 | 0.00 | 0.00 | 35 | 1044.1 |
| 20260508220402 | 21 | 195 | 8.0 | 11.3 | 0.00 | 0.00 | 0.00 | 34 | 1044.1 |
| 20260508215858 | 21 | 195 | 8.0 | 14.5 | 0.00 | 0.00 | 0.00 | 34 | 1044.1 |
| 20260508215355 | 21 | 208 | 8.0 | 9.7 | 0.00 | 0.00 | 0.00 | 34 | 1043.9 |
| 20260508214852 | 21 | 221 | 11.3 | 12.9 | 0.00 | 0.00 | 0.00 | 32 | 1044.2 |
| 20260508214349 | 21 | 209 | 9.7 | 12.9 | 0.00 | 0.00 | 0.00 | 35 | 1044.0 |
| 20260508213845 | 21 | 223 | 12.9 | 14.5 | 0.00 | 0.00 | 0.00 | 33 | 1044.0 |
| 20260508213343 | 21 | 235 | 11.3 | 14.5 | 0.00 | 0.00 | 0.00 | 34 | 1043.6 |
| 20260508212838 | 21 | 207 | 8.0 | 14.5 | 0.00 | 0.00 | 0.00 | 36 | 1043.9 |
| 20260508212335 | 21 | 175 | 11.3 | 16.1 | 0.00 | 0.00 | 0.00 | 33 | 1044.0 |
| 20260508211831 | 21 | 180 | 12.9 | 17.7 | 0.00 | 0.00 | 0.00 | 33 | 1044.3 |
| 20260508211327 | 21 | 202 | 6.4 | 11.3 | 0.00 | 0.00 | 0.00 | 35 | 1044.1 |
| 20260508210825 | 21 | 210 | 9.7 | 16.1 | 0.00 | 0.00 | 0.00 | 37 | 1044.2 |
| 20260508210321 | 21 | 222 | 9.7 | 12.9 | 0.00 | 0.00 | 0.00 | 34 | 1044.3 |
| 20260508205818 | 21 | 216 | 8.0 | 9.7 | 0.00 | 0.00 | 0.00 | 38 | 1044.4 |
| 20260508205314 | 21 | 217 | 6.4 | 9.7 | 0.00 | 0.00 | 0.00 | 36 | 1044.6 |
| 20260508204810 | 21 | 211 | 9.7 | 12.9 | 0.00 | 0.00 | 0.00 | 38 | 1044.8 |
| 20260508204308 | 21 | 224 | 8.0 | 11.3 | 0.00 | 0.00 | 0.00 | 34 | 1044.6 |
| 20260508203804 | 21 | 214 | 11.3 | 16.1 | 0.00 | 0.00 | 0.00 | 33 | 1044.8 |
| 20260508203300 | 21 | 217 | 8.0 | 12.9 | 0.00 | 0.00 | 0.00 | 37 | 1044.7 |
| 20260508202755 | 21 | 221 | 8.0 | 11.3 | 0.00 | 0.00 | 0.00 | 37 | 1045.1 |
| 20260508202253 | 21 | 230 | 6.4 | 9.7 | 0.00 | 0.00 | 0.00 | 38 | 1045.4 |
| 20260508201750 | 21 | 209 | 9.7 | 20.9 | 0.00 | 0.00 | 0.00 | 35 | 1045.3 |
| 20260508201247 | 21 | 231 | 6.4 | 11.3 | 0.00 | 0.00 | 0.00 | 35 | 1045.5 |
| 20260508200743 | 21 | 190 | 19.3 | 24.1 | 0.00 | 0.00 | 0.00 | 35 | 1045.4 |
| 20260508200240 | 21 | 185 | 11.3 | 20.9 | 0.00 | 0.00 | 0.00 | 34 | 1045.4 |
| 20260508195736 | 21 | 204 | 9.7 | 17.7 | 0.00 | 0.00 | 0.00 | 35 | 1045.4 |
| 20260508195232 | 21 | 184 | 8.0 | 16.1 | 0.00 | 0.00 | 0.00 | 34 | 1045.4 |
| 20260508194729 | 21 | 211 | 11.3 | 17.7 | 0.00 | 0.00 | 0.00 | 37 | 1045.3 |
| 20260508194226 | 21 | 224 | 6.4 | 11.3 | 0.00 | 0.00 | 0.00 | 35 | 1045.1 |
| 20260508193723 | 21 | 239 | 11.3 | 17.7 | 0.00 | 0.00 | 0.00 | 37 | 1045.6 |
| 20260508193220 | 21 | 212 | 8.0 | 20.9 | 0.00 | 0.00 | 0.00 | 36 | 1045.5 |
| 20260508192716 | 21 | 203 | 8.0 | 14.5 | 0.00 | 0.00 | 0.00 | 36 | 1045.6 |
| 20260508192213 | 21 | 235 | 11.3 | 17.7 | 0.00 | 0.00 | 0.00 | 36 | 1045.4 |
| 20260508191711 | 21 | 107 | 3.2 | 16.1 | 0.00 | 0.00 | 0.00 | 38 | 1045.6 |
| 20260508191207 | 21 | 173 | 9.7 | 14.5 | 0.00 | 0.00 | 0.00 | 34 | 1045.8 |
| 20260508190705 | 21 | 229 | 11.3 | 14.5 | 0.00 | 0.00 | 0.00 | 37 | 1045.8 |
| 20260508190201 | 20 | 198 | 6.4 | 14.5 | 0.00 | 0.00 | 0.00 | 36 | 1045.7 |
| 20260508185658 | 20 | 213 | 9.7 | 14.5 | 0.00 | 0.00 | 0.00 | 35 | 1045.8 |
| 20260508185155 | 20 | 198 | 9.7 | 16.1 | 0.00 | 0.00 | 0.00 | 40 | 1045.9 |
| 20260508184652 | 21 | 198 | 8.0 | 11.3 | 0.00 | 0.00 | 0.00 | 36 | 1046.0 |
| 20260508184149 | 20 | 246 | 1.6 | 9.7 | 0.00 | 0.00 | 0.00 | 41 | 1046.2 |
| 20260508183646 | 21 | 200 | 9.7 | 16.1 | 0.00 | 0.00 | 0.00 | 34 | 1046.1 |
| 20260508183142 | 20 | 221 | 6.4 | 12.9 | 0.00 | 0.00 | 0.00 | 38 | 1046.1 |
| 20260508182638 | 20 | 221 | 9.7 | 12.9 | 0.00 | 0.00 | 0.00 | 34 | 1046.2 |
| 20260508182135 | 20 | 194 | 9.7 | 14.5 | 0.00 | 0.00 | 0.00 | 36 | 1046.7 |
| 20260508181630 | 20 | 232 | 14.5 | 20.9 | 0.00 | 0.00 | 0.00 | 36 | 1046.7 |
| 20260508181128 | 20 | 215 | 9.7 | 12.9 | 0.00 | 0.00 | 0.00 | 35 | 1046.4 |
| 20260508180625 | 20 | 197 | 11.3 | 12.9 | 0.00 | 0.00 | 0.00 | 39 | 1047.0 |
| 20260508180121 | 20 | 183 | 12.9 | 17.7 | 0.00 | 0.00 | 0.00 | 35 | 1046.9 |
| 20260508175618 | 20 | 217 | 9.7 | 11.3 | 0.00 | 0.00 | 0.00 | 39 | 1047.2 |
| 20260508175115 | 20 | 201 | 3.2 | 12.9 | 0.00 | 0.00 | 0.00 | 36 | 1047.3 |
| 20260508174612 | 20 | 207 | 9.7 | 14.5 | 0.00 | 0.00 | 0.00 | 42 | 1047.2 |
| 20260508174109 | 20 | 200 | 11.3 | 16.1 | 0.00 | 0.00 | 0.00 | 35 | 1047.4 |
| 20260508173606 | 19 | 283 | 12.9 | 20.9 | 0.00 | 0.00 | 0.00 | 41 | 1047.5 |
| 20260508173102 | 20 | 164 | 8.0 | 16.1 | 0.00 | 0.00 | 0.00 | 38 | 1047.8 |
| 20260508172559 | 20 | 228 | 4.8 | 16.1 | 0.00 | 0.00 | 0.00 | 35 | 1047.6 |
| 20260508172056 | 20 | 240 | 8.0 | 12.9 | 0.00 | 0.00 | 0.00 | 41 | 1047.7 |
| 20260508171552 | 20 | 235 | 3.2 | 9.7 | 0.00 | 0.00 | 0.00 | 41 | 1047.7 |
| 20260508171049 | 20 | 240 | 8.0 | 11.3 | 0.00 | 0.00 | 0.00 | 39 | 1047.8 |
| 20260508170546 | 20 | 161 | 9.7 | 12.9 | 0.00 | 0.00 | 0.00 | 38 | 1048.0 |
| 20260508170043 | 20 | 201 | 8.0 | 11.3 | 0.00 | 0.00 | 0.00 | 39 | 1048.1 |
| 20260508165541 | 20 | 211 | 3.2 | 9.7 | 0.00 | 0.00 | 0.00 | 42 | 1048.4 |
| 20260508165038 | 20 | 240 | 4.8 | 4.8 | 0.00 | 0.00 | 0.00 | 39 | 1048.3 |
| 20260508164534 | 19 | 230 | 6.4 | 11.3 | 0.00 | 0.00 | 0.00 | 45 | 1048.3 |
| 20260508164031 | 19 | 233 | 11.3 | 14.5 | 0.00 | 0.00 | 0.00 | 43 | 1048.5 |
| 20260508163528 | 19 | 221 | 6.4 | 14.5 | 0.00 | 0.00 | 0.00 | 39 | 1048.9 |
| 20260508163025 | 19 | 209 | 8.0 | 11.3 | 0.00 | 0.00 | 0.00 | 43 | 1048.7 |
| 20260508162522 | 19 | 178 | 9.7 | 12.9 | 0.00 | 0.00 | 0.00 | 41 | 1048.7 |
| 20260508162019 | 19 | 217 | 6.4 | 11.3 | 0.00 | 0.00 | 0.00 | 42 | 1048.9 |
| 20260508161516 | 19 | 221 | 4.8 | 9.7 | 0.00 | 0.00 | 0.00 | 43 | 1048.9 |
| 20260508161013 | 19 | 183 | 8.0 | 11.3 | 0.00 | 0.00 | 0.00 | 39 | 1048.9 |
| 20260508160512 | 18 | 211 | 4.8 | 6.4 | 0.00 | 0.00 | 0.00 | 46 | 1049.2 |
| 20260508160008 | 18 | 223 | 6.4 | 9.7 | 0.00 | 0.00 | 0.00 | 42 | 1048.9 |
| 20260508155505 | 18 | 200 | 6.4 | 12.9 | 0.00 | 0.00 | 0.00 | 44 | 1049.2 |
| 20260508155001 | 18 | 213 | 9.7 | 12.9 | 0.00 | 0.00 | 0.00 | 41 | 1049.4 |
| 20260508154459 | 18 | 212 | 6.4 | 12.9 | 0.00 | 0.00 | 0.00 | 45 | 1049.3 |
| 20260508153956 | 18 | 303 | 4.8 | 12.9 | 0.00 | 0.00 | 0.00 | 44 | 1049.3 |
| 20260508153453 | 18 | 254 | 3.2 | 11.3 | 0.00 | 0.00 | 0.00 | 43 | 1049.5 |
| 20260508152949 | 18 | 290 | 9.7 | 11.3 | 0.00 | 0.00 | 0.00 | 47 | 1049.7 |
| 20260508152445 | 17 | 279 | 8.0 | 9.7 | 0.00 | 0.00 | 0.00 | 47 | 1049.5 |
| 20260508151942 | 17 | 223 | 4.8 | 6.4 | 0.00 | 0.00 | 0.00 | 44 | 1049.9 |
| 20260508151438 | 17 | 263 | 3.2 | 3.2 | 0.00 | 0.00 | 0.00 | 45 | 1049.8 |
| 20260508150935 | 17 | 168 | 9.7 | 12.9 | 0.00 | 0.00 | 0.00 | 44 | 1049.8 |
| 20260508150432 | 17 | 221 | 6.4 | 9.7 | 0.00 | 0.00 | 0.00 | 46 | 1049.8 |
| 20260508145927 | 17 | 272 | 4.8 | 6.4 | 0.00 | 0.00 | 0.00 | 47 | 1049.8 |
| 20260508145425 | 17 | 206 | 8.0 | 11.3 | 0.00 | 0.00 | 0.00 | 46 | 1049.9 |
| 20260508144921 | 17 | 206 | 8.0 | 11.3 | 0.00 | 0.00 | 0.00 | 46 | 1049.9 |
| 20260508144419 | 16 | 235 | 3.2 | 4.8 | 0.00 | 0.00 | 0.00 | 45 | 1049.8 |
| 20260508143916 | 16 | 225 | 9.7 | 14.5 | 0.00 | 0.00 | 0.00 | 47 | 1049.7 |
| 20260508143414 | 16 | 197 | 8.0 | 12.9 | 0.00 | 0.00 | 0.00 | 44 | 1049.6 |
| 20260508142910 | 16 | 195 | 8.0 | 9.7 | 0.00 | 0.00 | 0.00 | 44 | 1049.6 |
| 20260508142407 | 16 | 211 | 6.4 | 11.3 | 0.00 | 0.00 | 0.00 | 44 | 1049.7 |
| 20260508141903 | 16 | 225 | 3.2 | 9.7 | 0.00 | 0.00 | 0.00 | 47 | 1049.8 |
| 20260508141400 | 16 | 275 | 3.2 | 6.4 | 0.00 | 0.00 | 0.00 | 46 | 1050.1 |
| 20260508140858 | 16 | 195 | 6.4 | 9.7 | 0.00 | 0.00 | 0.00 | 47 | 1049.7 |
| 20260508140355 | 16 | 218 | 4.8 | 11.3 | 0.00 | 0.00 | 0.00 | 44 | 1049.6 |
| 20260508135850 | 15 | 224 | 6.4 | 11.3 | 0.00 | 0.00 | 0.00 | 47 | 1049.8 |
| 20260508135347 | 15 | 205 | 6.4 | 11.3 | 0.00 | 0.00 | 0.00 | 48 | 1049.8 |
| 20260508134843 | 15 | 264 | 8.0 | 9.7 | 0.00 | 0.00 | 0.00 | 46 | 1050.0 |
| 20260508134340 | 15 | 214 | 3.2 | 9.7 | 0.00 | 0.00 | 0.00 | 48 | 1049.8 |
| 20260508133837 | 15 | 223 | 3.2 | 4.8 | 0.00 | 0.00 | 0.00 | 48 | 1049.9 |
| 20260508133335 | 14 | 202 | 0.0 | 6.4 | 0.00 | 0.00 | 0.00 | 50 | 1049.9 |
| 20260508132831 | 14 | 202 | 3.2 | 9.7 | 0.00 | 0.00 | 0.00 | 50 | 1049.8 |
| 20260508132329 | 13 | 209 | 6.4 | 11.3 | 0.00 | 0.00 | 0.00 | 52 | 1049.8 |
| 20260508131826 | 13 | 238 | 3.2 | 4.8 | 0.00 | 0.00 | 0.00 | 54 | 1049.7 |
| 20260508131321 | 13 | 219 | 9.7 | 11.3 | 0.00 | 0.00 | 0.00 | 51 | 1050.0 |
| 20260508130818 | 13 | 196 | 6.4 | 6.4 | 0.00 | 0.00 | 0.00 | 53 | 1049.7 |
| 20260508130315 | 12 | 209 | 6.4 | 6.4 | 0.00 | 0.00 | 0.00 | 56 | 1049.9 |
| 20260508125811 | 12 | 208 | 4.8 | 9.7 | 0.00 | 0.00 | 0.00 | 55 | 1049.9 |
| 20260508125308 | 12 | 203 | 6.4 | 9.7 | 0.00 | 0.00 | 0.00 | 56 | 1049.8 |
| 20260508124806 | 12 | 210 | 8.0 | 11.3 | 0.00 | 0.00 | 0.00 | 56 | 1049.7 |
| 20260508124302 | 11 | 204 | 6.4 | 6.4 | 0.00 | 0.00 | 0.00 | 56 | 1049.7 |
| 20260508123800 | 11 | 211 | 3.2 | 4.8 | 0.00 | 0.00 | 0.00 | 59 | 1049.7 |
| 20260508123258 | 11 | 225 | 8.0 | 9.7 | 0.00 | 0.00 | 0.00 | 58 | 1049.6 |
| 20260508122754 | 11 | 223 | 4.8 | 4.8 | 0.00 | 0.00 | 0.00 | 59 | 1049.6 |
| 20260508122251 | 10 | 232 | 3.2 | 4.8 | 0.00 | 0.00 | 0.00 | 60 | 1049.7 |
| 20260508121749 | 10 | 229 | 4.8 | 4.8 | 0.00 | 0.00 | 0.00 | 62 | 1049.5 |
| 20260508121247 | 10 | 197 | 3.2 | 3.2 | 0.00 | 0.00 | 0.00 | 63 | 1049.6 |
| 20260508120744 | 9 | 224 | 6.4 | 6.4 | 0.00 | 0.00 | 0.00 | 66 | 1049.8 |
| 20260508120242 | 8 | 226 | 3.2 | 3.2 | 0.00 | 0.00 | 0.00 | 68 | 1049.7 |
| 20260508115739 | 7 | 179 | 1.6 | 1.6 | 0.00 | 0.00 | 0.00 | 71 | 1049.6 |
| 20260508115237 | -17 | 0.0 | 0.0 | 0.00 | 0.00 | 0.00 | 1049.4 | ||
| 20260508114733 | -17 | 0.0 | 0.0 | 0.00 | 0.00 | 0.00 | 1049.5 | ||
| 20260508114230 | 7 | 189 | 0.0 | 0.0 | 0.00 | 0.00 | 0.00 | 75 | 1049.5 |
| 20260508113726 | 7 | 189 | 0.0 | 0.0 | 0.00 | 0.00 | 0.00 | 75 | 1049.5 |
| 20260508113225 | 7 | 189 | 0.0 | 1.6 | 0.00 | 0.00 | 0.00 | 76 | 1049.4 |
| 20260508112721 | 6 | 189 | 0.0 | 0.0 | 0.00 | 0.00 | 0.00 | 78 | 1049.2 |
| 20260508112218 | 5 | 189 | 0.0 | 0.0 | 0.00 | 0.00 | 0.00 | 80 | 1049.2 |
| 20260508111714 | 5 | 189 | 0.0 | 0.0 | 0.00 | 0.00 | 0.00 | 82 | 1049.2 |
| 20260508111212 | 5 | 189 | 0.0 | 0.0 | 0.00 | 0.00 | 0.00 | 80 | 1049.4 |
| 20260508110709 | 5 | 189 | 0.0 | 0.0 | 0.00 | 0.00 | 0.00 | 80 | 1049.2 |
| 20260508110206 | 4 | 189 | 0.0 | 0.0 | 0.00 | 0.00 | 0.00 | 81 | 1049.0 |
| 20260508105706 | 4 | 189 | 1.6 | 1.6 | 0.00 | 0.00 | 0.00 | 83 | 1049.0 |
| 20260508105203 | 4 | 189 | 0.0 | 0.0 | 0.00 | 0.00 | 0.00 | 84 | 1048.9 |
| 20260508104701 | 3 | 189 | 0.0 | 0.0 | 0.00 | 0.00 | 0.00 | 85 | 1049.0 |
| 20260508104157 | 4 | 189 | 0.0 | 0.0 | 0.00 | 0.00 | 0.00 | 84 | 1048.7 |
| 20260508103654 | 4 | 189 | 0.0 | 0.0 | 0.00 | 0.00 | 0.00 | 83 | 1048.8 |
| 20260508103151 | 4 | 188 | 0.0 | 0.0 | 0.00 | 0.00 | 0.00 | 82 | 1048.9 |
| 20260508102649 | 5 | 189 | 0.0 | 0.0 | 0.00 | 0.00 | 0.00 | 80 | 1048.7 |
| 20260508102147 | 5 | 189 | 0.0 | 0.0 | 0.00 | 0.00 | 0.00 | 78 | 1048.9 |
| 20260508101643 | 5 | 189 | 0.0 | 0.0 | 0.00 | 0.00 | 0.00 | 76 | 1048.6 |
| 20260508101141 | 6 | 189 | 0.0 | 0.0 | 0.00 | 0.00 | 0.00 | 72 | 1048.7 |
| 20260508100638 | 6 | 189 | 0.0 | 0.0 | 0.00 | 0.00 | 0.00 | 69 | 1048.6 |
| 20260508100136 | 7 | 189 | 0.0 | 1.6 | 0.00 | 0.00 | 0.00 | 68 | 1048.7 |
| 20260508095633 | 7 | 180 | 3.2 | 3.2 | 0.00 | 0.00 | 0.00 | 67 | 1048.6 |
| 20260508095130 | 7 | 179 | 3.2 | 3.2 | 0.00 | 0.00 | 0.00 | 67 | 1048.5 |
| 20260508094627 | 7 | 190 | 3.2 | 4.8 | 0.00 | 0.00 | 0.00 | 67 | 1048.5 |
| 20260508094123 | 7 | 193 | 3.2 | 4.8 | 0.00 | 0.00 | 0.00 | 68 | 1048.5 |
| 20260508093621 | 6 | 175 | 3.2 | 6.4 | 0.00 | 0.00 | 0.00 | 69 | 1048.8 |
| 20260508093119 | 7 | 199 | 3.2 | 4.8 | 0.00 | 0.00 | 0.00 | 69 | 1048.6 |
| 20260508092615 | 6 | 185 | 4.8 | 4.8 | 0.00 | 0.00 | 0.00 | 69 | 1048.7 |
| 20260508092114 | 6 | 174 | 3.2 | 4.8 | 0.00 | 0.00 | 0.00 | 70 | 1048.7 |
| 20260508091610 | 6 | 168 | 3.2 | 3.2 | 0.00 | 0.00 | 0.00 | 71 | 1048.7 |
| 20260508091107 | 6 | 193 | 3.2 | 4.8 | 0.00 | 0.00 | 0.00 | 71 | 1048.6 |
| 20260508090606 | 6 | 181 | 3.2 | 4.8 | 0.00 | 0.00 | 0.00 | 72 | 1048.8 |
| 20260508085559 | 6 | 189 | 1.6 | 4.8 | 0.00 | 0.00 | 0.00 | 74 | 1048.7 |
| 20260508085056 | 6 | 174 | 3.2 | 3.2 | 0.00 | 0.00 | 0.00 | 74 | 1048.7 |
| 20260508084552 | 5 | 192 | 4.8 | 4.8 | 0.00 | 0.00 | 0.00 | 76 | 1048.8 |
| 20260508084050 | 5 | 197 | 1.6 | 3.2 | 0.00 | 0.00 | 0.00 | 78 | 1048.8 |
| 20260508083547 | 4 | 171 | 1.6 | 1.6 | 0.00 | 0.00 | 0.00 | 82 | 1048.8 |
| 20260508083044 | -17 | 0.0 | 0.0 | 0.00 | 0.00 | 0.00 | 1048.6 | ||
| 20260508082540 | -17 | 0.0 | 0.0 | 0.00 | 0.00 | 0.00 | 1048.8 | ||
| 20260508082037 | -17 | 0.0 | 0.0 | 0.00 | 0.00 | 0.00 | 1048.8 | ||
| 20260508081535 | 4 | 166 | 0.0 | 0.0 | 0.00 | 0.00 | 0.00 | 85 | 1049.0 |
| 20260508081030 | 4 | 166 | 0.0 | 0.0 | 0.00 | 0.00 | 0.00 | 85 | 1048.8 |
| 20260508080528 | 5 | 167 | 1.6 | 1.6 | 0.00 | 0.00 | 0.00 | 82 | 1048.8 |
| 20260508080026 | 5 | 167 | 1.6 | 1.6 | 0.00 | 0.00 | 0.00 | 82 | 1048.6 |
| 20260508075522 | 6 | 167 | 0.0 | 0.0 | 0.00 | 0.00 | 0.00 | 73 | 1048.6 |
| 20260508075020 | 6 | 167 | 0.0 | 0.0 | 0.00 | 0.00 | 0.00 | 73 | 1048.5 |
| 20260508074517 | 6 | 167 | 0.0 | 3.2 | 0.00 | 0.00 | 0.00 | 72 | 1048.5 |
| 20260508074014 | 6 | 167 | 1.6 | 1.6 | 0.00 | 0.00 | 0.00 | 73 | 1048.7 |
| 20260508073511 | 6 | 174 | 1.6 | 3.2 | 0.00 | 0.00 | 0.00 | 72 | 1048.9 |
| 20260508073009 | 6 | 171 | 1.6 | 1.6 | 0.00 | 0.00 | 0.00 | 71 | 1048.6 |
| 20260508072504 | 6 | 215 | 1.6 | 1.6 | 0.00 | 0.00 | 0.00 | 71 | 1048.7 |
| 20260508072002 | 6 | 216 | 0.0 | 1.6 | 0.00 | 0.00 | 0.00 | 72 | 1048.7 |
| 20260508071459 | 6 | 217 | 0.0 | 0.0 | 0.00 | 0.00 | 0.00 | 73 | 1048.6 |
| 20260508070957 | 6 | 217 | 1.6 | 1.6 | 0.00 | 0.00 | 0.00 | 73 | 1048.8 |
| 20260508070454 | 5 | 219 | 1.6 | 1.6 | 0.00 | 0.00 | 0.00 | 77 | 1048.8 |
| 20260508065952 | 6 | 221 | 0.0 | 1.6 | 0.00 | 0.00 | 0.00 | 72 | 1048.8 |
| 20260508065450 | 6 | 223 | 1.6 | 1.6 | 0.00 | 0.00 | 0.00 | 69 | 1048.8 |
| 20260508064948 | 6 | 226 | 1.6 | 1.6 | 0.00 | 0.00 | 0.00 | 70 | 1048.8 |
| 20260508064445 | 6 | 242 | 0.0 | 1.6 | 0.00 | 0.00 | 0.00 | 72 | 1048.9 |
| 20260508063943 | 5 | 269 | 1.6 | 1.6 | 0.00 | 0.00 | 0.00 | 76 | 1048.9 |
| 20260508063440 | 4 | 271 | 1.6 | 1.6 | 0.00 | 0.00 | 0.00 | 81 | 1048.6 |
| 20260508062938 | 5 | 271 | 0.0 | 0.0 | 0.00 | 0.00 | 0.00 | 84 | 1048.9 |
| 20260508062435 | 5 | 271 | 0.0 | 0.0 | 0.00 | 0.00 | 0.00 | 84 | 1048.8 |
| 20260508061932 | -17 | 0.0 | 0.0 | 0.00 | 0.00 | 0.00 | 1049.2 | ||
| 20260508061430 | 5 | 271 | 0.0 | 0.0 | 0.00 | 0.00 | 0.00 | 79 | 1048.9 |
| 20260508060925 | 5 | 271 | 0.0 | 0.0 | 0.00 | 0.00 | 0.00 | 79 | 1048.8 |
| 20260508060423 | 5 | 271 | 0.0 | 0.0 | 0.00 | 0.00 | 0.00 | 78 | 1049.2 |
| 20260508055919 | 5 | 271 | 0.0 | 0.0 | 0.00 | 0.00 | 0.00 | 82 | 1049.2 |
| 20260508055416 | 5 | 273 | 0.0 | 0.0 | 0.00 | 0.00 | 0.00 | 82 | 1049.2 |
| 20260508054912 | -17 | 0.0 | 0.0 | 0.00 | 0.00 | 0.00 | 1049.2 | ||
| 20260508054410 | -17 | 0.0 | 0.0 | 0.00 | 0.00 | 0.00 | 1049.3 | ||
| 20260508053906 | 5 | 280 | 0.0 | 0.0 | 0.00 | 0.00 | 0.00 | 84 | 1049.3 |
| 20260508053404 | 5 | 280 | 0.0 | 0.0 | 0.00 | 0.00 | 0.00 | 84 | 1049.3 |
| 20260508052901 | 5 | 280 | 1.6 | 1.6 | 0.00 | 0.00 | 0.00 | 82 | 1049.4 |
| 20260508052359 | -17 | 0.0 | 0.0 | 0.00 | 0.00 | 0.00 | 1049.3 | ||
| 20260508051854 | -17 | 0.0 | 0.0 | 0.00 | 0.00 | 0.00 | 1049.4 | ||
| 20260508051350 | -17 | 0.0 | 0.0 | 0.00 | 0.00 | 0.00 | 1049.3 | ||
| 20260508050847 | -17 | 0.0 | 0.0 | 0.00 | 0.00 | 0.00 | 1049.2 | ||
| 20260508050344 | 6 | 282 | 0.0 | 0.0 | 0.00 | 0.00 | 0.00 | 79 | 1049.4 |
| 20260508045839 | 6 | 282 | 0.0 | 0.0 | 0.00 | 0.00 | 0.00 | 79 | 1049.2 |
| 20260508045337 | 6 | 282 | 0.0 | 0.0 | 0.00 | 0.00 | 0.00 | 81 | 1049.0 |
| 20260508044835 | 5 | 283 | 1.6 | 1.6 | 0.00 | 0.00 | 0.00 | 82 | 1049.0 |
| 20260508044331 | 5 | 282 | 0.0 | 0.0 | 0.00 | 0.00 | 0.00 | 85 | 1048.9 |
| 20260508043827 | 5 | 282 | 1.6 | 1.6 | 0.00 | 0.00 | 0.00 | 84 | 1049.2 |
| 20260508043325 | 6 | 282 | 0.0 | 1.6 | 0.00 | 0.00 | 0.00 | 83 | 1049.0 |
| 20260508042821 | 6 | 282 | 0.0 | 0.0 | 0.00 | 0.00 | 0.00 | 83 | 1049.0 |
| 20260508042319 | 6 | 282 | 0.0 | 0.0 | 0.00 | 0.00 | 0.00 | 82 | 1049.2 |
| 20260508041816 | 5 | 282 | 0.0 | 1.6 | 0.00 | 0.00 | 0.00 | 83 | 1049.2 |
| 20260508041312 | 5 | 282 | 0.0 | 0.0 | 0.00 | 0.00 | 0.00 | 84 | 1049.4 |
| 20260508040808 | 5 | 283 | 0.0 | 0.0 | 0.00 | 0.00 | 0.00 | 85 | 1049.0 |
| 20260508040306 | 5 | 282 | 0.0 | 0.0 | 0.00 | 0.00 | 0.00 | 85 | 1049.2 |
| 20260508035803 | 5 | 283 | 0.0 | 0.0 | 0.00 | 0.00 | 0.00 | 85 | 1049.3 |
| 20260508035300 | 6 | 283 | 1.6 | 1.6 | 0.00 | 0.00 | 0.00 | 84 | 1049.0 |
| 20260508034757 | 6 | 283 | 0.0 | 0.0 | 0.00 | 0.00 | 0.00 | 83 | 1049.0 |
| 20260508034254 | 6 | 283 | 1.6 | 1.6 | 0.00 | 0.00 | 0.00 | 82 | 1049.3 |
| 20260508033751 | 6 | 283 | 0.0 | 0.0 | 0.00 | 0.00 | 0.00 | 79 | 1049.4 |
| 20260508033249 | 6 | 283 | 0.0 | 1.6 | 0.00 | 0.00 | 0.00 | 80 | 1049.4 |
| 20260508032747 | -17 | 0.0 | 0.0 | 0.00 | 0.00 | 0.00 | 1049.3 | ||
| 20260508032244 | -17 | 0.0 | 0.0 | 0.00 | 0.00 | 0.00 | 1049.2 | ||
| 20260508031740 | -17 | 0.0 | 0.0 | 0.00 | 0.00 | 0.00 | 1049.3 | ||
| 20260508031237 | 7 | 284 | 0.0 | 0.0 | 0.00 | 0.00 | 0.00 | 75 | 1049.4 |
| 20260508030733 | 7 | 284 | 0.0 | 0.0 | 0.00 | 0.00 | 0.00 | 75 | 1049.3 |
| 20260508030231 | -17 | 0.0 | 0.0 | 0.00 | 0.00 | 0.00 | 1049.4 | ||
| 20260508025727 | -17 | 0.0 | 0.0 | 0.00 | 0.00 | 0.00 | 1049.2 | ||
| 20260508025224 | -17 | 0.0 | 0.0 | 0.00 | 0.00 | 0.00 | 1049.2 | ||
| 20260508024720 | -17 | 0.0 | 0.0 | 0.00 | 0.00 | 0.00 | 1049.2 | ||
| 20260508024217 | -17 | 0.0 | 0.0 | 0.00 | 0.00 | 0.00 | 1049.2 | ||
| 20260508023714 | -17 | 0.0 | 0.0 | 0.00 | 0.00 | 0.00 | 1049.2 | ||
| 20260508023211 | -17 | 0.0 | 0.0 | 0.00 | 0.00 | 0.00 | 1049.0 | ||
| 20260508022707 | -17 | 0.0 | 0.0 | 0.00 | 0.00 | 0.00 | 1048.9 | ||
| 20260508022204 | -17 | 0.0 | 0.0 | 0.00 | 0.00 | 0.00 | 1048.9 | ||
| 20260508021701 | -17 | 0.0 | 0.0 | 0.00 | 0.00 | 0.00 | 1048.9 | ||
| 20260508021156 | -17 | 0.0 | 0.0 | 0.00 | 0.00 | 0.00 | 1048.9 | ||
| 20260508020654 | 9 | 285 | 0.0 | 0.0 | 0.00 | 0.00 | 0.00 | 58 | 1049.0 |
| 20260508020151 | 9 | 285 | 0.0 | 0.0 | 0.00 | 0.00 | 0.00 | 58 | 1048.9 |
| 20260508015648 | -17 | 0.0 | 0.0 | 0.00 | 0.00 | 0.00 | 1048.8 | ||
| 20260508015145 | 10 | 285 | 0.0 | 0.0 | 0.00 | 0.00 | 0.00 | 57 | 1048.6 |
| 20260508014642 | 10 | 285 | 0.0 | 0.0 | 0.00 | 0.00 | 0.00 | 57 | 1048.7 |
| 20260508014138 | 9 | 285 | 0.0 | 0.0 | 0.00 | 0.00 | 0.00 | 56 | 1048.4 |
| 20260508013634 | 9 | 285 | 0.0 | 0.0 | 0.00 | 0.00 | 0.00 | 54 | 1048.5 |
| 20260508013131 | 9 | 285 | 0.0 | 0.0 | 0.00 | 0.00 | 0.00 | 55 | 1048.4 |
| 20260508012629 | -17 | 0.0 | 0.0 | 0.00 | 0.00 | 0.00 | 1048.3 | ||
| 20260508012125 | 10 | 285 | 0.0 | 0.0 | 0.00 | 0.00 | 0.00 | 56 | 1048.4 |
| 20260508011624 | 10 | 285 | 0.0 | 0.0 | 0.00 | 0.00 | 0.00 | 56 | 1048.4 |
| 20260508011121 | 10 | 285 | 0.0 | 0.0 | 0.00 | 0.00 | 0.00 | 54 | 1048.2 |
| 20260508010617 | 10 | 284 | 0.0 | 0.0 | 0.00 | 0.00 | 0.00 | 56 | 1048.3 |
| 20260508010116 | 10 | 285 | 0.0 | 0.0 | 0.00 | 0.00 | 0.00 | 56 | 1048.2 |
| 20260508005612 | 11 | 284 | 0.0 | 1.6 | 0.00 | 0.00 | 0.00 | 54 | 1047.9 |
| 20260508005108 | 11 | 285 | 0.0 | 1.6 | 0.00 | 0.00 | 0.00 | 51 | 1048.1 |
| 20260508004604 | 11 | 285 | 0.0 | 1.6 | 0.00 | 0.00 | 0.00 | 50 | 1047.9 |
| 20260508004101 | 11 | 285 | 1.6 | 1.6 | 0.00 | 0.00 | 0.00 | 52 | 1048.1 |
| 20260508003558 | 12 | 285 | 0.0 | 0.0 | 0.00 | 0.00 | 0.00 | 51 | 1048.0 |
| 20260508003055 | 12 | 285 | 1.6 | 1.6 | 0.00 | 0.00 | 0.00 | 49 | 1047.9 |
| 20260508002552 | 13 | 285 | 0.0 | 1.6 | 0.00 | 0.00 | 0.00 | 49 | 1047.9 |
| 20260508002049 | 13 | 285 | 1.6 | 1.6 | 0.00 | 0.00 | 0.00 | 48 | 1047.9 |
| 20260508001544 | 14 | 295 | 1.6 | 1.6 | 0.00 | 0.00 | 0.00 | 44 | 1047.6 |
| 20260508001041 | 14 | 295 | 1.6 | 1.6 | 0.00 | 0.00 | 0.00 | 40 | 1047.6 |